Time;durP1;ratioP1;P1;durP2;ratioP2;P2;SDS_P1;SDS_P2;PMS_P1;PMS_P2;Temp;Humidity;BMP_temperature;BMP_pressure;BME280_temperature;BME280_humidity;BME280_pressure;Samples;Min_cycle;Max_cycle;Signal;HPM_P1;HPM_P2
2022/11/06 00:00:11;;;;;;;12.50;3.45;;;10.90;99.90;;;;;;5082218;28;20512;-72
2022/11/06 00:02:37;;;;;;;13.25;3.85;;;11.00;99.90;;;;;;5108539;28;20015;-72
2022/11/06 00:07:47;;;;;;;11.18;3.70;;;10.90;99.90;;;;;;5101267;28;20035;-72
2022/11/06 00:10:14;;;;;;;7.20;3.67;;;10.90;99.90;;;;;;5107062;28;20102;-72
2022/11/06 00:12:40;;;;;;;8.20;3.30;;;11.00;99.90;;;;;;5105770;28;20076;-71
2022/11/06 00:15:06;;;;;;;5.78;3.30;;;10.90;99.90;;;;;;5104625;27;20032;-72
2022/11/06 00:17:32;;;;;;;12.43;3.58;;;10.90;99.90;;;;;;5110110;28;20114;-71
2022/11/06 00:19:58;;;;;;;9.68;3.45;;;10.90;99.90;;;;;;5108881;28;20114;-72
2022/11/06 00:22:23;;;;;;;11.48;3.55;;;10.90;99.90;;;;;;5104052;28;20016;-72
2022/11/06 00:24:49;;;;;;;7.70;3.38;;;10.80;99.90;;;;;;5107225;28;20028;-72
2022/11/06 00:27:15;;;;;;;9.25;3.58;;;10.80;99.90;;;;;;5105444;28;20450;-72
2022/11/06 00:29:41;;;;;;;7.85;3.33;;;10.90;99.90;;;;;;5091230;28;20020;-72
2022/11/06 00:32:07;;;;;;;5.93;2.70;;;10.90;99.90;;;;;;5105495;28;20073;-72
2022/11/06 00:34:33;;;;;;;7.18;3.40;;;10.90;99.90;;;;;;5102227;28;20529;-72
2022/11/06 00:36:58;;;;;;;10.95;4.18;;;10.90;99.90;;;;;;5109671;28;20023;-72
2022/11/06 00:39:24;;;;;;;10.15;3.33;;;11.00;99.90;;;;;;5109940;28;20012;-71
2022/11/06 00:41:50;;;;;;;7.97;2.53;;;11.00;99.90;;;;;;5105989;28;20076;-72
2022/11/06 00:44:15;;;;;;;9.35;3.33;;;10.90;99.90;;;;;;5090936;28;20098;-72
2022/11/06 00:46:41;;;;;;;7.53;2.78;;;10.80;99.90;;;;;;5104610;28;20107;-71
2022/11/06 00:49:07;;;;;;;12.93;2.97;;;10.90;99.90;;;;;;5107422;28;20034;-71
2022/11/06 00:51:35;;;;;;;9.18;2.95;;;10.90;99.90;;;;;;5101330;28;20035;-72
2022/11/06 00:54:03;;;;;;;10.27;3.50;;;10.90;99.90;;;;;;5106269;28;20113;-72
2022/11/06 00:56:30;;;;;;;12.05;3.25;;;10.80;99.90;;;;;;5109876;28;20140;-72
2022/11/06 00:58:58;;;;;;;7.40;3.30;;;10.90;99.90;;;;;;5091706;28;20391;-72
2022/11/06 01:01:27;;;;;;;10.15;3.42;;;10.90;99.90;;;;;;5108321;28;20551;-72
2022/11/06 01:03:58;;;;;;;10.77;3.20;;;10.80;99.90;;;;;;5104095;28;20464;-72
2022/11/06 01:06:30;;;;;;;11.73;3.55;;;10.70;99.90;;;;;;5106801;28;20058;-72
2022/11/06 01:08:56;;;;;;;11.02;3.05;;;10.80;99.90;;;;;;5111054;28;20020;-72
2022/11/06 01:11:31;;;;;;;13.32;3.13;;;10.70;99.90;;;;;;5089006;28;20034;-71
2022/11/06 01:13:58;;;;;;;6.13;2.67;;;10.70;99.90;;;;;;5106211;28;20023;-72
2022/11/06 01:16:25;;;;;;;10.63;2.72;;;10.70;99.90;;;;;;5106471;27;20028;-72
2022/11/06 01:18:52;;;;;;;8.85;3.67;;;10.60;99.90;;;;;;5106223;28;20028;-72
2022/11/06 01:21:30;;;;;;;9.43;3.22;;;10.70;99.90;;;;;;5108350;28;20039;-72
2022/11/06 01:24:01;;;;;;;12.18;3.83;;;10.60;99.90;;;;;;5087225;28;20088;-72
2022/11/06 01:26:28;;;;;;;9.43;3.00;;;10.70;99.90;;;;;;5102843;28;20028;-72
2022/11/06 01:28:55;;;;;;;9.20;3.00;;;10.70;99.90;;;;;;5107177;28;20125;-72
2022/11/06 01:31:24;;;;;;;6.72;2.85;;;10.70;99.90;;;;;;5101662;28;20020;-72
2022/11/06 01:33:50;;;;;;;10.05;3.25;;;10.80;99.90;;;;;;5092680;28;20018;-72
2022/11/06 01:36:18;;;;;;;7.90;2.83;;;10.80;99.90;;;;;;5108116;28;20019;-72
2022/11/06 01:38:46;;;;;;;9.20;2.80;;;10.80;99.90;;;;;;5103438;28;20027;-72
2022/11/06 01:41:14;;;;;;;10.27;3.00;;;10.80;99.90;;;;;;5108133;28;20399;-72
2022/11/06 01:43:49;;;;;;;11.00;2.80;;;10.80;99.90;;;;;;5108167;28;20103;-72
2022/11/06 01:46:19;;;;;;;12.80;2.90;;;10.80;99.90;;;;;;5100772;28;20376;-72
2022/11/06 01:48:51;;;;;;;8.63;2.50;;;10.90;99.90;;;;;;5109342;28;20020;-72
2022/11/06 01:51:19;;;;;;;6.70;2.70;;;10.90;99.90;;;;;;5100910;28;20495;-72
2022/11/06 01:53:45;;;;;;;6.82;2.50;;;10.90;99.90;;;;;;5104756;28;20020;-72
2022/11/06 01:56:12;;;;;;;9.57;2.47;;;10.80;99.90;;;;;;5099753;28;20074;-72
2022/11/06 01:58:41;;;;;;;6.85;2.63;;;10.80;99.90;;;;;;5101890;28;20106;-72
2022/11/06 02:01:07;;;;;;;10.43;2.80;;;10.90;99.90;;;;;;5085917;28;20467;-72
2022/11/06 02:03:34;;;;;;;14.40;3.00;;;11.00;99.90;;;;;;5101341;28;20069;-72
2022/11/06 02:06:01;;;;;;;9.38;2.83;;;11.00;99.90;;;;;;5106733;28;20490;-72
2022/11/06 02:08:27;;;;;;;9.07;2.65;;;11.00;99.90;;;;;;5108414;28;20026;-72
2022/11/06 02:10:55;;;;;;;6.28;2.45;;;10.90;99.90;;;;;;5111027;28;20072;-72
2022/11/06 02:14:01;;;;;;;7.75;2.50;;;10.90;99.90;;;;;;5109626;27;20054;-72
2022/11/06 02:16:42;;;;;;;12.93;2.92;;;11.00;99.90;;;;;;5110709;28;20031;-72
2022/11/06 02:20:12;;;;;;;9.10;2.83;;;10.90;99.90;;;;;;5089336;28;20127;-71
2022/11/06 02:23:16;;;;;;;12.30;3.33;;;11.00;99.90;;;;;;5026458;28;20090;-72
2022/11/06 02:25:59;;;;;;;7.63;2.25;;;11.00;99.90;;;;;;5037627;28;20041;-72
2022/11/06 02:28:31;;;;;;;6.90;2.00;;;11.00;99.90;;;;;;5104663;28;20032;-72
2022/11/06 02:31:01;;;;;;;9.57;2.88;;;11.00;99.90;;;;;;5108959;28;20027;-72
2022/11/06 02:33:33;;;;;;;15.10;3.08;;;11.00;99.90;;;;;;5108971;28;20016;-72
2022/11/06 02:36:10;;;;;;;9.77;2.30;;;11.10;99.90;;;;;;5114228;28;20052;-71
2022/11/06 02:38:44;;;;;;;10.55;2.50;;;11.00;99.90;;;;;;5093966;28;20024;-72
2022/11/06 02:41:21;;;;;;;8.00;2.50;;;11.00;99.90;;;;;;5086726;28;20066;-72
2022/11/06 02:43:52;;;;;;;11.20;2.88;;;11.00;99.90;;;;;;5107219;28;20051;-72
2022/11/06 02:46:42;;;;;;;11.15;2.40;;;11.10;99.90;;;;;;5101935;27;20036;-73
2022/11/06 02:49:31;;;;;;;7.25;2.20;;;11.10;99.90;;;;;;5084313;28;20036;-73
2022/11/06 02:52:07;;;;;;;13.05;3.10;;;11.00;99.90;;;;;;5100695;27;20058;-73
2022/11/06 02:54:36;;;;;;;12.13;2.85;;;11.00;99.90;;;;;;5108471;28;20047;-73
2022/11/06 02:57:06;;;;;;;4.57;2.90;;;11.00;99.90;;;;;;5105015;28;20036;-73
2022/11/06 03:00:00;;;;;;;8.13;2.38;;;11.10;99.90;;;;;;5092727;28;20054;-73
2022/11/06 03:02:35;;;;;;;11.65;2.53;;;11.00;99.90;;;;;;5107912;27;20472;-73
2022/11/06 03:05:13;;;;;;;7.25;2.45;;;11.10;99.90;;;;;;5109463;28;20033;-73
2022/11/06 03:07:48;;;;;;;8.00;2.63;;;11.10;99.90;;;;;;5103720;28;20025;-72
2022/11/06 03:10:15;;;;;;;5.93;2.20;;;11.10;99.90;;;;;;5111931;28;20020;-73
2022/11/06 03:12:54;;;;;;;8.73;2.50;;;11.10;99.90;;;;;;5093844;28;20106;-73
2022/11/06 03:15:32;;;;;;;11.13;3.25;;;11.10;99.90;;;;;;5104610;27;20047;-73
2022/11/06 03:18:26;;;;;;;9.63;2.90;;;11.10;99.90;;;;;;5112806;28;20472;-73
2022/11/06 03:21:01;;;;;;;11.80;2.80;;;11.10;99.90;;;;;;5105966;28;20521;-72
2022/11/06 03:23:47;;;;;;;10.85;2.88;;;11.20;99.90;;;;;;5110003;28;20019;-73
2022/11/06 03:26:49;;;;;;;10.93;3.20;;;11.10;99.90;;;;;;5105395;28;20106;-73
2022/11/06 03:29:37;;;;;;;12.90;2.85;;;11.10;99.90;;;;;;5008152;28;20034;-73
2022/11/06 03:32:17;;;;;;;10.00;2.85;;;11.10;99.90;;;;;;5098536;28;20063;-73
2022/11/06 03:35:05;;;;;;;10.32;2.60;;;11.10;99.90;;;;;;5108896;28;20055;-73
2022/11/06 03:37:41;;;;;;;9.55;2.35;;;11.10;99.90;;;;;;5088501;28;20035;-73
2022/11/06 03:40:12;;;;;;;8.93;2.50;;;11.20;99.90;;;;;;5104545;28;20020;-73
2022/11/06 03:42:40;;;;;;;9.77;2.90;;;11.20;99.90;;;;;;5106576;27;20035;-73
2022/11/06 03:45:11;;;;;;;7.55;2.55;;;11.10;99.90;;;;;;5105288;28;20418;-73
2022/11/06 03:47:45;;;;;;;8.27;2.90;;;11.20;99.90;;;;;;5105775;28;20401;-73
2022/11/06 03:50:41;;;;;;;6.07;2.35;;;11.10;99.90;;;;;;5109228;28;20034;-73
2022/11/06 03:53:23;;;;;;;6.78;2.65;;;11.10;99.90;;;;;;5103066;28;20555;-73
2022/11/06 03:55:56;;;;;;;12.63;2.67;;;11.20;99.90;;;;;;5104553;28;20453;-73
2022/11/06 03:58:29;;;;;;;10.50;2.67;;;11.20;99.90;;;;;;5101578;28;20026;-73
2022/11/06 04:00:58;;;;;;;9.40;3.25;;;11.20;99.90;;;;;;5086929;28;20401;-73
2022/11/06 04:03:36;;;;;;;10.02;2.70;;;11.20;99.90;;;;;;5107145;27;20024;-73
2022/11/06 04:06:14;;;;;;;6.25;2.70;;;11.20;99.90;;;;;;5106318;28;20036;-73
2022/11/06 04:14:15;;;;;;;8.80;3.20;;;11.10;99.90;;;;;;5108453;28;20026;-73
2022/11/06 04:16:45;;;;;;;8.90;3.30;;;11.20;99.90;;;;;;5094553;28;20116;-73
2022/11/06 04:19:18;;;;;;;9.35;2.85;;;11.10;99.90;;;;;;5089723;28;20484;-73
2022/11/06 04:22:05;;;;;;;12.43;2.97;;;11.10;99.90;;;;;;5103644;28;20020;-73
2022/11/06 04:27:25;;;;;;;9.85;3.00;;;11.10;99.90;;;;;;5102179;27;20396;-73
2022/11/06 04:29:51;;;;;;;8.55;2.95;;;11.10;99.90;;;;;;5106489;28;20012;-73
2022/11/06 04:32:27;;;;;;;12.65;3.08;;;11.10;99.90;;;;;;5105799;28;20028;-73
2022/11/06 04:35:10;;;;;;;7.13;2.80;;;11.10;99.90;;;;;;5100936;28;20024;-73
2022/11/06 04:37:50;;;;;;;12.30;2.78;;;11.10;99.90;;;;;;5097848;28;20031;-73
2022/11/06 04:40:40;;;;;;;6.60;2.25;;;11.10;99.90;;;;;;5104342;28;20027;-73
2022/11/06 04:43:24;;;;;;;6.40;2.55;;;11.10;99.90;;;;;;5108266;28;20038;-73
2022/11/06 04:45:54;;;;;;;9.75;2.90;;;11.20;99.90;;;;;;5109703;28;20069;-73
2022/11/06 04:48:21;;;;;;;5.47;2.55;;;11.20;99.90;;;;;;5083309;28;20019;-73
2022/11/06 04:50:55;;;;;;;7.57;2.95;;;11.10;99.90;;;;;;5107228;28;20028;-73
2022/11/06 04:53:22;;;;;;;9.73;2.97;;;11.20;99.90;;;;;;5107223;28;20044;-73
2022/11/06 04:55:58;;;;;;;9.60;3.00;;;11.10;99.90;;;;;;5087969;28;20028;-73
2022/11/06 04:58:24;;;;;;;8.45;2.90;;;11.20;99.90;;;;;;5099768;28;20057;-73
2022/11/06 05:00:50;;;;;;;8.32;2.78;;;11.10;99.90;;;;;;5108174;28;20012;-73
2022/11/06 05:03:16;;;;;;;9.60;3.30;;;11.20;99.90;;;;;;5105790;28;20034;-73
2022/11/06 05:05:42;;;;;;;5.18;2.63;;;11.20;99.90;;;;;;5105683;28;20077;-73
2022/11/06 05:08:15;;;;;;;8.10;2.63;;;11.20;99.90;;;;;;5104515;28;20457;-73
2022/11/06 05:10:42;;;;;;;10.40;2.95;;;11.30;99.90;;;;;;5109029;28;20551;-73
2022/11/06 05:13:07;;;;;;;10.43;2.85;;;11.20;99.90;;;;;;5093139;28;20498;-73
2022/11/06 05:15:33;;;;;;;9.68;2.70;;;11.20;99.90;;;;;;5104862;28;20051;-73
2022/11/06 05:17:59;;;;;;;5.32;2.38;;;11.30;99.90;;;;;;5109506;28;20147;-73
2022/11/06 05:20:24;;;;;;;8.20;2.63;;;11.30;99.90;;;;;;5100497;28;20032;-73
2022/11/06 05:22:59;;;;;;;6.60;2.38;;;11.20;99.90;;;;;;5108843;28;20026;-73
2022/11/06 05:25:30;;;;;;;8.52;2.55;;;11.20;99.90;;;;;;5105385;28;20029;-73
2022/11/06 05:27:55;;;;;;;6.90;2.60;;;11.20;99.90;;;;;;5100397;28;20023;-73
2022/11/06 05:30:22;;;;;;;10.52;2.47;;;11.20;99.90;;;;;;5105269;28;20019;-73
2022/11/06 05:32:48;;;;;;;9.68;2.58;;;11.10;99.90;;;;;;5090163;28;20034;-73
2022/11/06 05:35:14;;;;;;;8.00;2.35;;;11.20;99.90;;;;;;5106180;28;20023;-73
2022/11/06 05:37:40;;;;;;;10.43;2.67;;;11.10;99.90;;;;;;5108059;28;20028;-72
2022/11/06 05:40:07;;;;;;;7.47;2.88;;;11.10;99.90;;;;;;5102416;28;20039;-73
2022/11/06 05:42:35;;;;;;;6.38;2.30;;;11.00;99.90;;;;;;5108369;28;20031;-73
2022/11/06 05:45:00;;;;;;;7.90;2.55;;;11.10;99.90;;;;;;5105758;28;20016;-73
2022/11/06 05:47:26;;;;;;;8.70;2.53;;;11.10;99.90;;;;;;5102154;28;20038;-73
2022/11/06 05:49:52;;;;;;;11.70;3.22;;;11.00;99.90;;;;;;5102124;28;20024;-73
2022/11/06 05:52:17;;;;;;;5.88;2.40;;;11.00;99.90;;;;;;5109209;28;20486;-73
2022/11/06 05:54:43;;;;;;;8.25;2.40;;;11.00;99.90;;;;;;5091539;28;20047;-73
2022/11/06 05:57:08;;;;;;;8.77;2.58;;;10.90;99.90;;;;;;5105091;28;20031;-73
2022/11/06 05:59:34;;;;;;;12.82;2.97;;;11.00;99.90;;;;;;5107047;28;20020;-73
2022/11/06 06:02:00;;;;;;;8.75;2.55;;;11.00;99.90;;;;;;5105210;28;20028;-73
2022/11/06 06:04:25;;;;;;;12.25;2.42;;;11.00;99.90;;;;;;5100889;28;20039;-73
2022/11/06 06:06:51;;;;;;;5.43;2.20;;;10.90;99.90;;;;;;5102057;28;20067;-73
2022/11/06 06:09:16;;;;;;;6.82;2.60;;;10.90;99.90;;;;;;5099970;28;20424;-73
2022/11/06 06:11:42;;;;;;;6.72;2.80;;;10.90;99.90;;;;;;5107148;28;20020;-73
2022/11/06 06:14:07;;;;;;;6.82;2.50;;;10.90;99.90;;;;;;5103573;28;20034;-73
2022/11/06 06:16:33;;;;;;;9.65;2.25;;;11.00;99.90;;;;;;5102991;28;20081;-73
2022/11/06 06:18:59;;;;;;;11.60;3.08;;;10.90;99.90;;;;;;5104141;28;20510;-73
2022/11/06 06:21:24;;;;;;;7.30;2.72;;;11.00;99.90;;;;;;5102200;28;20035;-73
2022/11/06 06:23:50;;;;;;;7.03;2.30;;;11.00;99.90;;;;;;5103426;28;20027;-73
2022/11/06 06:26:16;;;;;;;7.18;2.95;;;11.00;99.90;;;;;;5105372;28;20388;-73
2022/11/06 06:28:42;;;;;;;8.55;2.28;;;10.90;99.90;;;;;;5090229;28;20119;-73
2022/11/06 06:31:08;;;;;;;4.82;2.38;;;11.00;99.90;;;;;;5101955;28;20031;-73
2022/11/06 06:33:34;;;;;;;10.90;3.08;;;11.00;99.90;;;;;;5108514;28;20015;-73
2022/11/06 06:36:04;;;;;;;12.27;2.88;;;11.00;99.90;;;;;;5103289;28;20069;-73
2022/11/06 06:38:30;;;;;;;9.15;2.50;;;11.00;99.90;;;;;;5097733;28;20050;-73
2022/11/06 06:41:02;;;;;;;8.85;2.38;;;11.00;99.90;;;;;;5103232;28;20063;-73
2022/11/06 06:43:28;;;;;;;7.20;2.53;;;11.00;99.90;;;;;;5098218;28;20016;-73
2022/11/06 06:45:58;;;;;;;9.35;2.95;;;11.10;99.90;;;;;;5103507;28;20040;-73
2022/11/06 06:48:24;;;;;;;8.60;2.92;;;11.00;99.90;;;;;;5102275;28;20106;-73
2022/11/06 06:50:50;;;;;;;8.73;2.63;;;11.00;99.90;;;;;;5102133;28;20476;-73
2022/11/06 06:53:15;;;;;;;7.65;2.63;;;11.00;99.90;;;;;;5111907;28;20024;-73
2022/11/06 06:55:41;;;;;;;9.43;2.60;;;10.90;99.90;;;;;;5107480;28;20026;-73
2022/11/06 06:58:06;;;;;;;10.30;3.10;;;11.00;99.90;;;;;;5109048;28;20365;-73
2022/11/06 07:00:32;;;;;;;7.72;2.70;;;11.00;99.90;;;;;;5103709;28;20051;-73
2022/11/06 07:02:58;;;;;;;29.33;22.58;;;11.00;99.90;;;;;;5087077;28;20024;-73
2022/11/06 07:05:23;;;;;;;12.70;4.10;;;11.00;99.90;;;;;;5089854;28;20031;-73
2022/11/06 07:07:49;;;;;;;9.43;3.28;;;11.00;99.90;;;;;;5106366;28;20079;-73
2022/11/06 07:10:15;;;;;;;11.85;3.35;;;11.10;99.90;;;;;;5107252;28;20422;-73
2022/11/06 07:12:41;;;;;;;6.13;2.72;;;11.10;99.90;;;;;;5106670;27;20023;-73
2022/11/06 07:15:07;;;;;;;9.82;2.63;;;11.00;99.90;;;;;;5109156;28;20482;-73
2022/11/06 07:17:33;;;;;;;11.38;3.00;;;11.00;99.90;;;;;;5109251;28;20090;-73
2022/11/06 07:19:58;;;;;;;12.77;3.25;;;11.10;99.90;;;;;;5110773;28;20111;-73
2022/11/06 07:22:27;;;;;;;9.63;2.65;;;11.10;99.90;;;;;;5083746;28;20022;-73
2022/11/06 07:24:53;;;;;;;7.32;2.25;;;11.10;99.90;;;;;;5110962;28;20035;-74
2022/11/06 07:27:18;;;;;;;7.30;2.03;;;11.10;99.90;;;;;;5106232;27;20035;-74
2022/11/06 07:29:44;;;;;;;6.28;3.20;;;11.20;99.90;;;;;;5112099;28;20047;-72
2022/11/06 07:32:10;;;;;;;5.18;2.53;;;11.20;99.90;;;;;;5108229;28;20020;-72
2022/11/06 07:34:37;;;;;;;11.18;2.55;;;11.20;99.90;;;;;;5104148;27;20440;-71
2022/11/06 07:37:04;;;;;;;4.88;2.10;;;11.10;99.90;;;;;;5109551;28;20526;-71
2022/11/06 07:39:30;;;;;;;13.38;2.47;;;11.20;99.90;;;;;;5105456;28;20019;-71
2022/11/06 07:41:55;;;;;;;7.25;2.08;;;11.30;99.90;;;;;;5108362;28;20028;-71
2022/11/06 07:44:21;;;;;;;9.00;3.05;;;11.30;99.90;;;;;;5110955;28;20098;-71
2022/11/06 07:46:47;;;;;;;12.25;2.55;;;11.30;99.90;;;;;;5100492;28;20480;-71
2022/11/06 07:49:14;;;;;;;9.57;2.25;;;11.30;99.90;;;;;;5111005;28;20030;-71
2022/11/06 07:51:41;;;;;;;8.68;3.15;;;11.40;99.90;;;;;;5101257;27;20095;-71
2022/11/06 07:54:07;;;;;;;4.63;2.70;;;11.30;99.90;;;;;;5109081;28;20042;-71
2022/11/06 07:56:32;;;;;;;9.07;2.75;;;11.40;99.90;;;;;;5108760;28;20026;-70
2022/11/06 07:58:58;;;;;;;13.60;2.80;;;11.40;99.90;;;;;;5112595;28;20103;-70
2022/11/06 08:01:24;;;;;;;5.80;2.53;;;11.40;99.90;;;;;;5101557;28;20438;-70
2022/11/06 08:03:49;;;;;;;5.82;2.25;;;11.40;99.90;;;;;;5111157;28;20068;-70
2022/11/06 08:06:15;;;;;;;4.93;2.60;;;11.60;99.90;;;;;;5104977;27;20384;-71
2022/11/06 08:08:41;;;;;;;7.07;2.17;;;11.70;99.90;;;;;;5101664;28;20372;-72
2022/11/06 08:11:09;;;;;;;5.03;1.98;;;11.70;99.90;;;;;;5111552;28;20032;-71
2022/11/06 08:13:35;;;;;;;8.18;2.40;;;11.80;99.90;;;;;;5110819;28;20463;-71
2022/11/06 08:16:08;;;;;;;11.65;2.10;;;11.80;99.90;;;;;;5110975;28;20038;-71
2022/11/06 08:18:34;;;;;;;6.85;1.95;;;11.80;99.90;;;;;;5102035;28;20245;-71
2022/11/06 08:21:01;;;;;;;5.35;1.58;;;11.90;99.90;;;;;;5111841;28;20073;-71
2022/11/06 08:23:27;;;;;;;10.48;3.10;;;11.80;99.90;;;;;;5092964;28;20012;-70
2022/11/06 08:25:54;;;;;;;7.78;2.42;;;11.80;99.90;;;;;;5111906;28;20066;-71
2022/11/06 08:28:20;;;;;;;8.95;2.10;;;11.80;99.90;;;;;;5104403;28;20035;-70
2022/11/06 08:30:46;;;;;;;7.30;2.20;;;11.80;99.90;;;;;;5109103;28;20436;-71
2022/11/06 08:33:11;;;;;;;7.50;2.47;;;11.80;99.90;;;;;;5107055;28;20020;-71
2022/11/06 08:35:37;;;;;;;8.85;2.15;;;11.80;99.90;;;;;;5103780;28;20387;-70
2022/11/06 08:38:03;;;;;;;8.05;2.17;;;11.80;99.90;;;;;;5108738;28;20018;-70
2022/11/06 08:40:29;;;;;;;6.07;2.38;;;11.90;99.90;;;;;;5104734;27;20024;-70
2022/11/06 08:43:03;;;;;;;3.92;1.90;;;12.10;99.90;;;;;;5104805;28;20028;-71
2022/11/06 08:45:29;;;;;;;6.55;2.03;;;12.20;99.90;;;;;;5109605;28;20134;-70
2022/11/06 08:47:59;;;;;;;5.72;1.67;;;12.30;99.90;;;;;;5108745;28;20024;-70
2022/11/06 08:50:24;;;;;;;7.25;2.03;;;12.40;99.90;;;;;;5098383;28;20089;-70
2022/11/06 08:52:50;;;;;;;7.60;2.22;;;12.40;99.90;;;;;;5102509;28;20019;-70
2022/11/06 08:55:15;;;;;;;5.30;2.28;;;12.50;99.90;;;;;;5105806;28;20387;-70
2022/11/06 08:57:41;;;;;;;8.45;2.05;;;12.50;99.90;;;;;;5107328;28;20099;-70
2022/11/06 09:00:07;;;;;;;7.15;2.13;;;12.60;99.90;;;;;;5087990;28;20388;-71
2022/11/06 09:02:33;;;;;;;9.93;2.58;;;12.50;99.90;;;;;;5105549;28;20038;-70
2022/11/06 09:04:58;;;;;;;6.60;1.80;;;12.50;99.90;;;;;;5101327;28;20024;-71
2022/11/06 09:07:24;;;;;;;7.32;1.88;;;12.50;99.90;;;;;;5111173;28;20024;-71
2022/11/06 09:09:49;;;;;;;8.27;1.70;;;12.50;99.90;;;;;;5102263;28;20047;-71
2022/11/06 09:12:15;;;;;;;8.45;3.50;;;12.60;99.90;;;;;;5107950;28;20054;-71
2022/11/06 09:14:41;;;;;;;7.32;2.88;;;12.70;99.90;;;;;;5103233;28;20042;-71
2022/11/06 09:17:06;;;;;;;7.13;1.98;;;12.70;99.90;;;;;;5107033;28;20362;-71
2022/11/06 09:19:32;;;;;;;9.95;2.28;;;12.70;99.90;;;;;;5105577;28;20039;-71
2022/11/06 09:21:57;;;;;;;7.47;1.90;;;12.60;99.90;;;;;;5099490;28;20035;-71
2022/11/06 09:24:23;;;;;;;7.03;2.15;;;12.60;99.90;;;;;;5086310;28;20028;-71
2022/11/06 09:26:49;;;;;;;8.63;2.10;;;12.60;99.90;;;;;;5107328;28;20022;-71
2022/11/06 09:29:14;;;;;;;6.18;2.22;;;12.70;99.90;;;;;;5104300;28;20027;-70
2022/11/06 09:31:41;;;;;;;7.85;2.67;;;12.60;99.90;;;;;;5090548;28;20070;-71
2022/11/06 09:34:07;;;;;;;7.45;2.00;;;12.60;99.90;;;;;;5107806;28;20407;-72
2022/11/06 09:36:34;;;;;;;6.53;2.20;;;12.60;99.90;;;;;;5111795;28;20030;-72
2022/11/06 09:39:00;;;;;;;6.90;2.00;;;12.60;99.90;;;;;;5105958;28;20440;-72
2022/11/06 09:42:08;;;;;;;7.22;1.77;;;12.60;99.90;;;;;;5108298;28;20539;-72
2022/11/06 09:44:39;;;;;;;7.97;2.08;;;12.50;99.90;;;;;;5020409;28;20120;-72
2022/11/06 09:47:23;;;;;;;7.43;2.50;;;12.60;99.90;;;;;;5023594;28;20034;-72
2022/11/06 09:49:54;;;;;;;7.47;2.20;;;12.70;99.90;;;;;;5078118;28;20040;-72
2022/11/06 09:52:37;;;;;;;7.63;2.28;;;12.70;99.90;;;;;;5101885;28;20078;-72
2022/11/06 09:55:27;;;;;;;3.47;1.95;;;12.70;99.90;;;;;;5106139;28;20469;-72
2022/11/06 09:58:12;;;;;;;9.30;2.55;;;12.80;99.90;;;;;;5105770;28;20024;-72
2022/11/06 10:00:39;;;;;;;6.38;1.92;;;12.70;99.90;;;;;;5109714;28;20376;-70
2022/11/06 10:03:14;;;;;;;7.78;1.52;;;12.80;99.90;;;;;;5085810;28;20035;-74
2022/11/06 10:05:41;;;;;;;7.70;2.50;;;12.80;99.90;;;;;;5088993;28;20034;-70
2022/11/06 10:08:22;;;;;;;8.85;1.92;;;12.80;99.90;;;;;;5102905;28;20468;-72
2022/11/06 10:11:15;;;;;;;6.15;2.20;;;12.70;99.90;;;;;;5105892;28;20421;-70
2022/11/06 10:13:47;;;;;;;9.95;2.65;;;12.80;99.90;;;;;;5087643;28;20484;-70
2022/11/06 10:16:39;;;;;;;8.27;2.67;;;12.80;99.90;;;;;;5105380;28;20019;-70
2022/11/06 10:19:13;;;;;;;8.40;2.67;;;12.90;99.90;;;;;;5106629;28;20456;-69
2022/11/06 10:21:49;;;;;;;9.43;2.72;;;12.90;99.90;;;;;;5103701;28;20512;-70
2022/11/06 10:24:20;;;;;;;13.00;3.58;;;12.90;99.90;;;;;;5105352;28;20032;-70
2022/11/06 10:26:54;;;;;;;9.80;2.63;;;12.90;99.90;;;;;;5104336;28;20085;-69
2022/11/06 10:29:44;;;;;;;6.97;2.70;;;12.80;99.90;;;;;;5106984;28;20551;-70
2022/11/06 10:32:28;;;;;;;10.02;3.08;;;13.00;99.90;;;;;;5108445;27;20028;-70
2022/11/06 10:35:19;;;;;;;6.38;2.10;;;12.80;99.90;;;;;;5105113;28;20560;-69
2022/11/06 10:38:01;;;;;;;9.32;2.85;;;12.90;99.90;;;;;;5099774;28;20039;-70
2022/11/06 10:40:30;;;;;;;7.78;3.28;;;12.90;99.90;;;;;;5105947;27;20028;-70
2022/11/06 10:43:12;;;;;;;12.05;3.60;;;12.90;99.90;;;;;;5108527;28;20114;-70
2022/11/06 10:45:45;;;;;;;12.57;3.55;;;12.90;99.90;;;;;;5105444;28;20028;-70
2022/11/06 10:48:16;;;;;;;7.35;2.88;;;12.90;99.90;;;;;;5108088;28;20054;-70
2022/11/06 10:50:55;;;;;;;13.77;3.40;;;13.00;99.90;;;;;;5104070;28;20048;-70
2022/11/06 10:53:42;;;;;;;10.20;3.17;;;12.90;99.90;;;;;;5109009;28;20456;-70
2022/11/06 10:56:47;;;;;;;7.82;1.85;;;12.90;99.90;;;;;;5106707;28;20035;-70
2022/11/06 10:59:14;;;;;;;6.05;2.10;;;12.90;99.90;;;;;;5107540;28;20042;-71
2022/11/06 11:01:40;;;;;;;13.88;2.58;;;12.90;99.90;;;;;;5106184;28;20023;-70
2022/11/06 11:04:05;;;;;;;5.22;2.03;;;12.90;99.90;;;;;;5093550;28;20050;-72
2022/11/06 11:06:31;;;;;;;9.20;2.30;;;13.00;99.90;;;;;;5111824;28;20476;-72
2022/11/06 11:08:57;;;;;;;8.00;2.30;;;12.90;99.90;;;;;;5103986;27;20019;-71
2022/11/06 11:11:27;;;;;;;5.03;1.92;;;13.00;99.90;;;;;;5109152;28;20034;-71
2022/11/06 11:13:55;;;;;;;12.35;2.33;;;13.00;99.90;;;;;;5109261;28;20028;-71
2022/11/06 11:16:43;;;;;;;6.20;2.17;;;13.00;99.90;;;;;;5102969;27;20035;-71
2022/11/06 11:19:35;;;;;;;6.85;1.40;;;12.90;99.90;;;;;;5107002;28;20027;-71
2022/11/06 11:22:20;;;;;;;5.75;1.70;;;12.80;99.90;;;;;;5103271;28;20028;-71
2022/11/06 11:25:07;;;;;;;5.72;1.50;;;13.00;99.90;;;;;;5107067;28;20019;-71
2022/11/06 11:27:43;;;;;;;6.82;2.30;;;13.00;99.90;;;;;;5105264;28;20188;-71
2022/11/06 11:30:25;;;;;;;5.15;1.77;;;13.00;99.90;;;;;;5104771;28;20047;-72
2022/11/06 11:32:51;;;;;;;5.57;1.55;;;13.10;99.90;;;;;;5108918;28;20476;-72
2022/11/06 11:35:22;;;;;;;4.93;1.58;;;13.10;99.90;;;;;;5111533;28;20031;-71
2022/11/06 11:37:48;;;;;;;5.03;1.58;;;13.10;99.90;;;;;;5111599;28;20136;-72
2022/11/06 11:40:36;;;;;;;5.90;1.83;;;13.00;99.90;;;;;;5106872;28;20377;-72
2022/11/06 11:43:20;;;;;;;6.75;2.30;;;13.10;99.90;;;;;;5106079;28;20059;-72
2022/11/06 11:46:06;;;;;;;8.45;2.33;;;13.30;99.90;;;;;;5103438;28;20082;-71
2022/11/06 11:48:43;;;;;;;4.65;2.03;;;13.20;99.90;;;;;;5091054;28;20046;-71
2022/11/06 11:51:26;;;;;;;5.05;1.23;;;13.20;99.90;;;;;;5105182;28;20032;-71
2022/11/06 11:53:53;;;;;;;;;;;13.20;99.90;;;;;;5111398;28;20024;-72
2022/11/06 11:56:21;;;;;;;5.20;1.70;;;13.20;99.90;;;;;;5109563;28;19903;-72
2022/11/06 11:58:55;;;;;;;4.43;1.38;;;13.30;99.90;;;;;;5108466;28;20113;-71
2022/11/06 12:01:40;;;;;;;12.80;1.77;;;13.20;99.90;;;;;;5107290;28;20028;-71
2022/11/06 12:04:21;;;;;;;6.35;1.20;;;13.30;99.90;;;;;;5105059;27;20127;-71
2022/11/06 12:07:05;;;;;;;5.80;1.50;;;13.50;99.90;;;;;;5109836;28;20032;-71
2022/11/06 12:09:39;;;;;;;5.38;1.38;;;13.50;99.90;;;;;;5103092;27;20031;-72
2022/11/06 12:12:05;;;;;;;7.50;1.45;;;13.50;99.90;;;;;;5107896;28;20469;-69
2022/11/06 12:14:36;;;;;;;8.98;1.67;;;13.40;99.90;;;;;;5105796;28;20110;-70
2022/11/06 12:17:13;;;;;;;7.35;2.15;;;13.50;99.90;;;;;;5104833;28;20028;-70
2022/11/06 12:19:44;;;;;;;6.20;2.10;;;13.40;99.90;;;;;;5104936;28;20032;-71
2022/11/06 12:22:17;;;;;;;9.57;2.60;;;13.40;99.90;;;;;;5107155;28;20468;-72
2022/11/06 12:25:06;;;;;;;8.02;2.55;;;13.30;99.90;;;;;;5107475;28;20023;-72
2022/11/06 12:27:37;;;;;;;7.20;1.77;;;13.40;99.90;;;;;;5058080;28;20066;-71
2022/11/06 12:30:11;;;;;;;5.72;1.65;;;13.30;99.90;;;;;;5105501;28;20019;-70
2022/11/06 12:32:53;;;;;;;4.10;1.40;;;13.30;99.90;;;;;;5107948;28;20537;-70
2022/11/06 12:35:30;;;;;;;11.65;2.42;;;13.10;99.90;;;;;;5097851;27;20077;-70
2022/11/06 12:38:16;;;;;;;8.88;2.67;;;13.10;99.90;;;;;;5091383;28;20028;-71
2022/11/06 12:40:55;;;;;;;6.05;2.40;;;13.30;99.90;;;;;;5088619;28;20080;-71
2022/11/06 12:43:44;;;;;;;5.03;2.50;;;13.20;99.90;;;;;;5109228;28;20099;-71
2022/11/06 12:46:21;;;;;;;7.80;2.70;;;13.30;99.90;;;;;;5088477;28;20036;-71
2022/11/06 12:48:56;;;;;;;6.05;2.17;;;13.30;99.90;;;;;;5105138;28;20033;-72
2022/11/06 12:51:49;;;;;;;6.28;2.60;;;13.30;99.90;;;;;;5106987;28;20030;-71
2022/11/06 12:54:31;;;;;;;7.63;2.65;;;13.30;99.90;;;;;;5107653;28;20333;-71
2022/11/06 12:57:15;;;;;;;6.82;2.20;;;13.30;99.90;;;;;;5110949;28;20031;-71
2022/11/06 12:59:40;;;;;;;6.15;2.20;;;13.30;99.90;;;;;;5104664;28;20024;-71
2022/11/06 13:02:28;;;;;;;10.52;2.08;;;13.30;99.90;;;;;;5109527;28;20038;-71
2022/11/06 13:04:59;;;;;;;6.40;2.40;;;13.20;99.90;;;;;;5089061;28;20114;-71
2022/11/06 13:07:51;;;;;;;5.20;1.90;;;13.30;99.90;;;;;;5105421;28;20083;-70
2022/11/06 13:10:54;;;;;;;7.88;1.80;;;13.30;99.90;;;;;;5106421;28;20122;-71
2022/11/06 13:13:40;;;;;;;7.30;1.50;;;13.20;99.90;;;;;;5092425;27;20055;-71
2022/11/06 13:16:12;;;;;;;5.13;1.90;;;13.10;99.90;;;;;;5100205;28;20030;-71
2022/11/06 13:18:42;;;;;;;5.57;1.52;;;13.20;99.90;;;;;;5101135;28;20400;-71
2022/11/06 13:21:26;;;;;;;5.60;1.80;;;13.20;99.90;;;;;;5104253;28;20496;-71